Time;durP1;ratioP1;P1;durP2;ratioP2;P2;SDS_P1;SDS_P2;PMS_P1;PMS_P2;Temp;Humidity;BMP_temperature;BMP_pressure;BME280_temperature;BME280_humidity;BME280_pressure;Samples;Min_cycle;Max_cycle;Signal;HPM_P1;HPM_P2
2023/07/29 00:02:01;;;;;;;;;3.20;3.20;;;;;;;;5043458;28;8796;-84
2023/07/29 00:04:30;;;;;;;;;3.60;3.60;;;;;;;;5049471;28;8839;-83
2023/07/29 00:06:57;;;;;;;;;2.00;2.00;;;;;;;;5049376;28;8874;-85
2023/07/29 00:09:26;;;;;;;;;2.00;2.00;;;;;;;;5039655;28;8851;-85
2023/07/29 00:11:54;;;;;;;;;1.80;1.80;;;;;;;;5051458;28;8839;-85
2023/07/29 00:14:21;;;;;;;;;2.40;2.40;;;;;;;;5047438;28;8860;-84
2023/07/29 00:16:48;;;;;;;;;2.00;2.00;;;;;;;;5050833;28;8854;-86
2023/07/29 00:19:16;;;;;;;;;0.80;0.80;;;;;;;;5050945;28;8881;-85
2023/07/29 00:21:43;;;;;;;;;1.00;1.00;;;;;;;;5050457;28;8972;-85
2023/07/29 00:24:10;;;;;;;;;2.80;1.00;;;;;;;;5049507;28;8928;-85
2023/07/29 00:26:39;;;;;;;;;1.20;1.20;;;;;;;;5049686;28;8912;-86
2023/07/29 00:29:06;;;;;;;;;1.00;1.00;;;;;;;;5048488;28;8875;-85
2023/07/29 00:31:34;;;;;;;;;1.00;1.00;;;;;;;;5040365;28;8918;-83
2023/07/29 00:34:01;;;;;;;;;3.40;3.40;;;;;;;;5033637;28;8850;-84
2023/07/29 00:36:31;;;;;;;;;2.20;2.20;;;;;;;;5039811;28;8974;-84
2023/07/29 00:38:59;;;;;;;;;3.00;3.00;;;;;;;;5050686;28;8854;-83
2023/07/29 00:41:28;;;;;;;;;3.80;3.80;;;;;;;;5049374;28;9749;-85
2023/07/29 00:43:57;;;;;;;;;3.00;3.00;;;;;;;;5049701;28;9630;-84
2023/07/29 00:46:24;;;;;;;;;2.60;2.60;;;;;;;;5041612;28;8859;-85
2023/07/29 00:48:52;;;;;;;;;2.40;2.40;;;;;;;;5048624;28;8890;-86
2023/07/29 00:51:19;;;;;;;;;5.00;3.40;;;;;;;;5049920;28;8874;-84
2023/07/29 00:53:46;;;;;;;;;6.25;4.50;;;;;;;;5050180;28;8854;-85
2023/07/29 00:56:14;;;;;;;;;12.75;10.75;;;;;;;;5044486;28;8877;-85
2023/07/29 00:58:42;;;;;;;;;14.50;14.50;;;;;;;;5029905;28;8866;-86
2023/07/29 01:01:11;;;;;;;;;15.25;15.25;;;;;;;;5029531;28;8809;-85
2023/07/29 01:03:38;;;;;;;;;9.00;9.00;;;;;;;;5038914;28;8851;-85
2023/07/29 01:06:14;;;;;;;;;12.50;12.50;;;;;;;;5032886;28;8870;-88
2023/07/29 01:08:50;;;;;;;;;16.75;16.75;;;;;;;;5035255;28;8878;-86
2023/07/29 01:11:28;;;;;;;;;6.60;6.60;;;;;;;;5056013;28;8863;-85
2023/07/29 01:14:00;;;;;;;;;5.40;5.40;;;;;;;;5053659;28;9104;-87
2023/07/29 01:16:34;;;;;;;;;4.60;4.60;;;;;;;;5040345;28;8928;-88
2023/07/29 01:19:02;;;;;;;;;7.00;7.00;;;;;;;;5050906;28;8851;-87
2023/07/29 01:21:30;;;;;;;;;11.20;11.20;;;;;;;;5050723;28;8844;-85
2023/07/29 01:24:03;;;;;;;;;10.00;10.00;;;;;;;;5034918;28;8872;-85
2023/07/29 01:26:31;;;;;;;;;12.00;11.00;;;;;;;;5042765;28;8893;-85
2023/07/29 01:28:59;;;;;;;;;7.20;7.20;;;;;;;;5051559;28;8864;-85
2023/07/29 01:31:35;;;;;;;;;4.75;4.75;;;;;;;;5047978;28;8790;-84
2023/07/29 01:34:18;;;;;;;;;4.60;4.60;;;;;;;;5033978;28;8839;-84
2023/07/29 01:36:46;;;;;;;;;4.20;2.60;;;;;;;;5044723;28;8854;-83
2023/07/29 01:39:16;;;;;;;;;3.80;3.80;;;;;;;;5048219;28;8874;-83
2023/07/29 01:41:44;;;;;;;;;3.80;3.80;;;;;;;;5031453;28;8830;-84
2023/07/29 01:44:12;;;;;;;;;1.80;1.80;;;;;;;;5033960;28;8843;-85
2023/07/29 01:46:39;;;;;;;;;3.20;3.20;;;;;;;;5048861;28;8851;-83
2023/07/29 01:49:07;;;;;;;;;4.80;3.60;;;;;;;;5048188;28;8871;-83
2023/07/29 01:51:34;;;;;;;;;3.20;3.20;;;;;;;;5052199;28;8885;-83
2023/07/29 01:54:04;;;;;;;;;4.00;4.00;;;;;;;;5051683;28;8855;-85
2023/07/29 01:56:37;;;;;;;;;3.00;3.00;;;;;;;;5051286;28;9725;-85
2023/07/29 01:59:04;;;;;;;;;4.00;4.00;;;;;;;;5049029;28;8871;-81
2023/07/29 02:01:31;;;;;;;;;4.00;4.00;;;;;;;;5041970;28;8929;-83
2023/07/29 02:04:01;;;;;;;;;2.40;2.40;;;;;;;;5046678;28;8859;-83
2023/07/29 02:06:28;;;;;;;;;4.20;4.00;;;;;;;;5047070;28;8877;-83
2023/07/29 02:08:56;;;;;;;;;3.80;3.80;;;;;;;;5045207;28;8886;-83
2023/07/29 02:11:27;;;;;;;;;4.00;2.20;;;;;;;;5035745;28;8850;-85
2023/07/29 02:13:56;;;;;;;;;2.40;2.40;;;;;;;;5034817;28;8893;-88
2023/07/29 02:16:23;;;;;;;;;3.80;3.80;;;;;;;;5052057;28;9705;-86
2023/07/29 02:18:51;;;;;;;;;5.00;3.60;;;;;;;;5044269;28;8922;-83
2023/07/29 02:21:18;;;;;;;;;2.40;2.40;;;;;;;;5051826;28;8851;-84
2023/07/29 02:23:45;;;;;;;;;4.00;4.00;;;;;;;;5052073;28;8847;-84
2023/07/29 02:26:15;;;;;;;;;3.40;3.20;;;;;;;;5053779;28;9688;-81
2023/07/29 02:28:43;;;;;;;;;4.40;3.00;;;;;;;;5054252;28;8847;-82
2023/07/29 02:31:20;;;;;;;;;3.40;3.40;;;;;;;;5043790;28;8909;-83
2023/07/29 02:33:47;;;;;;;;;3.00;3.00;;;;;;;;5037550;28;8985;-84
2023/07/29 02:36:15;;;;;;;;;3.40;3.40;;;;;;;;5051743;28;9534;-84
2023/07/29 02:38:46;;;;;;;;;5.40;4.20;;;;;;;;5052280;28;8835;-86
2023/07/29 02:41:13;;;;;;;;;4.40;3.20;;;;;;;;5052035;28;8888;-82
2023/07/29 02:43:43;;;;;;;;;5.60;5.00;;;;;;;;5051393;28;8843;-84
2023/07/29 02:46:10;;;;;;;;;4.20;4.20;;;;;;;;5052338;28;8952;-85
2023/07/29 02:48:39;;;;;;;;;5.80;4.40;;;;;;;;5041287;28;9004;-84
2023/07/29 02:51:06;;;;;;;;;3.60;3.60;;;;;;;;5048993;28;9503;-84
2023/07/29 02:53:33;;;;;;;;;4.00;4.00;;;;;;;;5051578;28;8847;-83
2023/07/29 02:56:01;;;;;;;;;4.00;4.00;;;;;;;;5051712;28;8851;-86
2023/07/29 02:58:30;;;;;;;;;2.20;2.00;;;;;;;;5051669;28;8881;-84
2023/07/29 03:01:02;;;;;;;;;6.20;4.60;;;;;;;;5050344;28;8800;-85
2023/07/29 03:03:29;;;;;;;;;4.20;4.00;;;;;;;;5039181;28;8865;-84
2023/07/29 03:06:01;;;;;;;;;3.80;3.80;;;;;;;;5038671;28;8872;-85
2023/07/29 03:08:28;;;;;;;;;3.20;3.20;;;;;;;;5039164;28;8934;-86
2023/07/29 03:10:56;;;;;;;;;5.60;5.60;;;;;;;;5049222;28;8860;-86
2023/07/29 03:13:23;;;;;;;;;4.60;4.60;;;;;;;;5039590;28;8849;-86
2023/07/29 03:15:51;;;;;;;;;5.80;5.80;;;;;;;;5049993;28;8865;-87
2023/07/29 03:18:18;;;;;;;;;7.80;7.20;;;;;;;;5051084;28;8993;-82
2023/07/29 03:20:45;;;;;;;;;7.00;7.00;;;;;;;;5057899;28;9784;-81
2023/07/29 03:23:14;;;;;;;;;6.80;6.80;;;;;;;;5051261;28;8873;-80
2023/07/29 03:25:41;;;;;;;;;6.20;6.20;;;;;;;;5052264;28;8859;-81
2023/07/29 03:28:08;;;;;;;;;4.80;4.80;;;;;;;;5052884;28;8839;-81
2023/07/29 03:30:35;;;;;;;;;5.60;5.60;;;;;;;;5036919;28;8773;-80
2023/07/29 03:33:04;;;;;;;;;6.40;6.40;;;;;;;;5033772;28;8865;-81
2023/07/29 03:35:31;;;;;;;;;5.80;5.80;;;;;;;;5032966;28;8896;-80
2023/07/29 03:38:01;;;;;;;;;5.80;5.80;;;;;;;;5032541;28;8850;-81
2023/07/29 03:40:30;;;;;;;;;4.20;4.20;;;;;;;;5031928;28;8876;-84
2023/07/29 03:42:57;;;;;;;;;6.00;6.00;;;;;;;;5033791;28;8874;-81
2023/07/29 03:45:24;;;;;;;;;6.20;5.80;;;;;;;;5047898;28;8970;-82
2023/07/29 03:47:51;;;;;;;;;6.40;6.40;;;;;;;;5044300;28;8822;-82
2023/07/29 03:50:18;;;;;;;;;8.20;6.80;;;;;;;;5049434;28;8940;-81
2023/07/29 03:52:46;;;;;;;;;5.40;5.40;;;;;;;;5037789;28;9624;-81
2023/07/29 03:55:13;;;;;;;;;4.80;4.80;;;;;;;;5045468;28;8920;-81
2023/07/29 03:57:45;;;;;;;;;5.00;5.00;;;;;;;;5050148;28;8835;-82
2023/07/29 04:00:12;;;;;;;;;5.80;5.80;;;;;;;;5034689;28;8860;-81
2023/07/29 04:02:42;;;;;;;;;5.00;5.00;;;;;;;;5031470;28;8869;-83
2023/07/29 04:05:12;;;;;;;;;4.80;4.80;;;;;;;;5045685;28;9639;-82
2023/07/29 04:07:39;;;;;;;;;4.00;4.00;;;;;;;;5039762;28;8921;-85
2023/07/29 04:10:08;;;;;;;;;4.00;4.00;;;;;;;;5050027;28;8874;-85
2023/07/29 04:12:38;;;;;;;;;3.00;3.00;;;;;;;;5036979;28;8870;-82
2023/07/29 04:15:08;;;;;;;;;5.60;5.20;;;;;;;;5048013;28;8875;-84
2023/07/29 04:17:36;;;;;;;;;4.40;4.40;;;;;;;;5039916;28;8900;-82
2023/07/29 04:20:03;;;;;;;;;3.80;3.80;;;;;;;;5031218;28;9718;-81
2023/07/29 04:22:31;;;;;;;;;4.00;4.00;;;;;;;;5044024;28;9602;-82
2023/07/29 04:25:04;;;;;;;;;4.40;4.40;;;;;;;;5048325;28;8986;-81
2023/07/29 04:27:31;;;;;;;;;2.80;2.80;;;;;;;;5037293;28;8852;-82
2023/07/29 04:29:58;;;;;;;;;4.00;4.00;;;;;;;;5047839;28;8957;-82
2023/07/29 04:32:27;;;;;;;;;5.00;4.00;;;;;;;;5036254;28;8945;-82
2023/07/29 04:34:54;;;;;;;;;1.20;1.20;;;;;;;;5049134;28;8973;-82
2023/07/29 04:37:21;;;;;;;;;2.00;2.00;;;;;;;;5047564;28;8867;-81
2023/07/29 04:39:49;;;;;;;;;3.00;3.00;;;;;;;;5049732;28;8847;-82
2023/07/29 04:42:16;;;;;;;;;3.60;2.00;;;;;;;;5044219;28;8980;-83
2023/07/29 04:44:43;;;;;;;;;4.40;2.00;;;;;;;;5031270;28;8838;-83
2023/07/29 04:47:12;;;;;;;;;2.40;2.40;;;;;;;;5049282;28;8849;-83
2023/07/29 04:49:41;;;;;;;;;2.20;2.20;;;;;;;;5049569;28;8851;-81
2023/07/29 04:52:08;;;;;;;;;2.00;2.00;;;;;;;;5046975;28;8913;-82
2023/07/29 04:54:36;;;;;;;;;2.00;2.00;;;;;;;;5041767;28;9002;-81
2023/07/29 04:57:03;;;;;;;;;1.00;1.00;;;;;;;;5048176;28;9274;-81
2023/07/29 04:59:32;;;;;;;;;2.20;2.20;;;;;;;;5050803;28;8875;-82
2023/07/29 05:02:03;;;;;;;;;2.00;2.00;;;;;;;;5037490;28;8818;-80
2023/07/29 05:04:31;;;;;;;;;3.80;2.00;;;;;;;;5043039;28;8862;-82
2023/07/29 05:07:02;;;;;;;;;2.00;2.00;;;;;;;;5031598;28;8984;-85
2023/07/29 05:09:29;;;;;;;;;1.80;1.80;;;;;;;;5040410;28;8843;-84
2023/07/29 05:11:56;;;;;;;;;2.00;2.00;;;;;;;;5049188;28;8877;-81
2023/07/29 05:14:23;;;;;;;;;0.80;0.80;;;;;;;;5043559;28;8848;-82
2023/07/29 05:16:50;;;;;;;;;1.00;1.00;;;;;;;;5033456;28;8850;-84
2023/07/29 05:19:18;;;;;;;;;2.60;1.40;;;;;;;;5031103;28;8888;-82
2023/07/29 05:21:45;;;;;;;;;1.60;1.60;;;;;;;;5044935;28;8851;-81
2023/07/29 05:24:14;;;;;;;;;3.00;1.60;;;;;;;;5049346;28;8863;-81
2023/07/29 05:26:41;;;;;;;;;0.80;0.80;;;;;;;;5049422;28;8879;-89
2023/07/29 05:29:08;;;;;;;;;2.00;2.00;;;;;;;;5048991;28;8839;-82
2023/07/29 05:31:35;;;;;;;;;1.00;1.00;;;;;;;;5049039;28;8795;-86
2023/07/29 05:34:03;;;;;;;;;2.80;1.20;;;;;;;;5042739;28;8847;-83
2023/07/29 05:36:30;;;;;;;;;1.40;1.40;;;;;;;;5054495;28;8851;-83
2023/07/29 05:38:57;;;;;;;;;1.00;1.00;;;;;;;;5054367;28;8853;-85
2023/07/29 05:41:28;;;;;;;;;1.60;1.60;;;;;;;;5053048;28;8966;-83
2023/07/29 05:43:55;;;;;;;;;2.00;2.00;;;;;;;;5052694;28;8859;-85
2023/07/29 05:46:22;;;;;;;;;0.80;0.80;;;;;;;;5052749;28;8985;-83
2023/07/29 05:48:49;;;;;;;;;0.80;0.80;;;;;;;;5051920;28;9014;-82
2023/07/29 05:51:17;;;;;;;;;1.40;1.20;;;;;;;;5044194;28;9574;-88
2023/07/29 05:53:44;;;;;;;;;1.20;1.20;;;;;;;;5046757;28;8897;-76
2023/07/29 05:56:11;;;;;;;;;2.00;2.00;;;;;;;;5033091;28;8857;-78
2023/07/29 05:58:40;;;;;;;;;1.00;1.00;;;;;;;;5050985;28;8978;-80
2023/07/29 06:01:07;;;;;;;;;1.00;1.00;;;;;;;;5052074;28;8914;-78
2023/07/29 06:03:34;;;;;;;;;2.00;2.00;;;;;;;;5038643;28;9590;-79
2023/07/29 06:06:02;;;;;;;;;1.00;1.00;;;;;;;;5035696;28;8884;-78
2023/07/29 06:08:29;;;;;;;;;0.80;0.80;;;;;;;;5043792;28;8835;-80
2023/07/29 06:10:56;;;;;;;;;1.80;1.80;;;;;;;;5060839;28;8839;-79
2023/07/29 06:13:23;;;;;;;;;1.40;1.40;;;;;;;;5033739;28;8964;-81
2023/07/29 06:15:52;;;;;;;;;1.80;1.80;;;;;;;;5045791;28;8873;-79
2023/07/29 06:18:19;;;;;;;;;1.80;1.80;;;;;;;;5039774;28;8869;-77
2023/07/29 06:20:46;;;;;;;;;1.00;1.00;;;;;;;;5037256;28;8942;-81
2023/07/29 06:23:13;;;;;;;;;1.40;1.40;;;;;;;;5038587;28;8980;-80
2023/07/29 06:25:41;;;;;;;;;1.00;1.00;;;;;;;;5032415;28;8870;-80
2023/07/29 06:28:08;;;;;;;;;1.00;1.00;;;;;;;;5031373;28;8874;-81
2023/07/29 06:30:35;;;;;;;;;2.00;2.00;;;;;;;;5039622;28;8909;-82
2023/07/29 06:33:04;;;;;;;;;1.40;1.40;;;;;;;;5046091;28;8842;-78
2023/07/29 06:35:31;;;;;;;;;1.00;1.00;;;;;;;;5046083;28;8904;-77
2023/07/29 06:37:58;;;;;;;;;1.80;1.80;;;;;;;;5042319;28;8855;-77
2023/07/29 06:40:25;;;;;;;;;1.00;1.00;;;;;;;;5054369;28;8855;-78
2023/07/29 06:42:52;;;;;;;;;0.80;0.80;;;;;;;;5052131;28;8889;-77
2023/07/29 06:45:20;;;;;;;;;0.80;0.80;;;;;;;;5051807;28;8871;-75
2023/07/29 06:47:47;;;;;;;;;0.00;0.00;;;;;;;;5049537;28;8843;-75
2023/07/29 06:50:15;;;;;;;;;0.60;0.60;;;;;;;;5051363;28;8885;-75
2023/07/29 06:52:43;;;;;;;;;1.00;1.00;;;;;;;;5051446;28;8976;-78
2023/07/29 06:55:10;;;;;;;;;1.60;1.60;;;;;;;;5048705;28;8940;-75
2023/07/29 06:57:37;;;;;;;;;0.80;0.80;;;;;;;;5046805;28;8868;-73
2023/07/29 07:00:06;;;;;;;;;1.00;1.00;;;;;;;;5049941;28;8932;-76
2023/07/29 07:02:33;;;;;;;;;2.00;0.20;;;;;;;;5042593;28;8938;-76
2023/07/29 07:05:00;;;;;;;;;0.20;0.20;;;;;;;;5051258;28;8851;-76
2023/07/29 07:07:29;;;;;;;;;0.80;0.80;;;;;;;;5047868;28;8881;-74
2023/07/29 07:09:56;;;;;;;;;0.80;0.80;;;;;;;;5030701;28;8858;-76
2023/07/29 07:12:23;;;;;;;;;0.80;0.80;;;;;;;;5030954;28;8865;-76
2023/07/29 07:14:51;;;;;;;;;0.00;0.00;;;;;;;;5043237;28;8847;-79
2023/07/29 07:17:18;;;;;;;;;0.20;0.20;;;;;;;;5049087;28;8957;-76
2023/07/29 07:19:46;;;;;;;;;1.20;1.20;;;;;;;;5051284;28;8855;-77
2023/07/29 07:22:13;;;;;;;;;1.20;1.20;;;;;;;;5049453;28;8847;-76
2023/07/29 07:24:42;;;;;;;;;1.20;1.20;;;;;;;;5039335;28;9673;-75
2023/07/29 07:27:09;;;;;;;;;1.00;1.00;;;;;;;;5033442;28;8880;-77
2023/07/29 07:29:36;;;;;;;;;0.80;0.80;;;;;;;;5030965;28;8841;-79
2023/07/29 07:32:04;;;;;;;;;0.00;0.00;;;;;;;;5045565;28;8894;-79
2023/07/29 07:34:33;;;;;;;;;0.80;0.80;;;;;;;;5050732;28;8863;-75
2023/07/29 07:37:00;;;;;;;;;0.60;0.60;;;;;;;;5049896;28;8885;-75
2023/07/29 07:39:27;;;;;;;;;0.80;0.80;;;;;;;;5044408;28;8888;-75
2023/07/29 07:41:56;;;;;;;;;0.60;0.60;;;;;;;;5029629;28;8891;-74
2023/07/29 07:44:26;;;;;;;;;0.40;0.40;;;;;;;;5034374;28;8865;-76
2023/07/29 07:46:53;;;;;;;;;0.60;0.60;;;;;;;;5032179;28;8931;-76
2023/07/29 07:49:23;;;;;;;;;0.20;0.20;;;;;;;;5030520;28;8869;-75
2023/07/29 07:51:50;;;;;;;;;1.00;1.00;;;;;;;;5030522;28;8878;-76
2023/07/29 07:54:18;;;;;;;;;0.20;0.20;;;;;;;;5046072;28;8881;-75
2023/07/29 07:56:45;;;;;;;;;1.00;1.00;;;;;;;;5048896;28;8847;-75
2023/07/29 07:59:14;;;;;;;;;0.80;0.80;;;;;;;;5036273;28;8888;-75
2023/07/29 08:01:41;;;;;;;;;0.40;0.40;;;;;;;;5029810;28;8794;-75
2023/07/29 08:04:08;;;;;;;;;0.00;0.00;;;;;;;;5048438;28;8851;-76
2023/07/29 08:06:36;;;;;;;;;0.20;0.20;;;;;;;;5050232;28;8870;-78
2023/07/29 08:09:03;;;;;;;;;1.00;1.00;;;;;;;;5048062;28;8847;-77
2023/07/29 08:11:31;;;;;;;;;0.40;0.40;;;;;;;;5044632;28;8865;-78
2023/07/29 08:13:59;;;;;;;;;0.60;0.60;;;;;;;;5050868;28;8878;-77
2023/07/29 08:16:27;;;;;;;;;1.00;1.00;;;;;;;;5052240;28;9444;-76
2023/07/29 08:18:55;;;;;;;;;1.00;1.00;;;;;;;;5050898;28;8859;-76
2023/07/29 08:21:22;;;;;;;;;0.80;0.80;;;;;;;;5051664;28;8843;-75
2023/07/29 08:23:50;;;;;;;;;0.00;0.00;;;;;;;;5050240;28;8961;-76
2023/07/29 08:26:17;;;;;;;;;1.00;1.00;;;;;;;;5050642;28;8834;-75
2023/07/29 08:28:44;;;;;;;;;0.00;0.00;;;;;;;;5049172;28;9684;-75
2023/07/29 08:31:11;;;;;;;;;1.60;1.60;;;;;;;;5048316;28;8859;-76
2023/07/29 08:33:40;;;;;;;;;0.40;0.40;;;;;;;;5049108;28;8893;-74
2023/07/29 08:36:07;;;;;;;;;1.20;0.60;;;;;;;;5049044;28;8862;-77
2023/07/29 08:38:36;;;;;;;;;2.00;0.20;;;;;;;;5049250;28;8867;-78
2023/07/29 08:41:14;;;;;;;;;0.80;0.80;;;;;;;;5048591;28;8855;-76
2023/07/29 08:43:53;;;;;;;;;0.20;0.20;;;;;;;;5048341;28;8877;-78
2023/07/29 08:46:21;;;;;;;;;0.00;0.00;;;;;;;;5047589;28;8851;-76
2023/07/29 08:48:49;;;;;;;;;0.00;0.00;;;;;;;;5035595;28;8845;-74
2023/07/29 08:51:17;;;;;;;;;1.00;1.00;;;;;;;;5028810;28;8849;-75
2023/07/29 08:53:44;;;;;;;;;0.00;0.00;;;;;;;;5030148;28;8849;-77
2023/07/29 08:56:11;;;;;;;;;0.80;0.00;;;;;;;;5028667;28;9683;-76
2023/07/29 08:58:39;;;;;;;;;0.00;0.00;;;;;;;;5029435;28;8862;-75
2023/07/29 09:01:07;;;;;;;;;0.60;0.60;;;;;;;;5028343;28;8879;-76
2023/07/29 09:03:34;;;;;;;;;1.00;1.00;;;;;;;;5029098;28;8865;-74
2023/07/29 09:06:04;;;;;;;;;0.00;0.00;;;;;;;;5028953;28;8877;-80
2023/07/29 09:08:31;;;;;;;;;0.20;0.20;;;;;;;;5029743;28;8869;-76
2023/07/29 09:10:59;;;;;;;;;0.60;0.60;;;;;;;;5033355;28;8869;-76
2023/07/29 09:13:26;;;;;;;;;0.40;0.40;;;;;;;;5033215;28;8874;-77
2023/07/29 09:15:56;;;;;;;;;0.00;0.00;;;;;;;;5051888;28;8857;-76
2023/07/29 09:18:24;;;;;;;;;1.00;1.00;;;;;;;;5054395;28;8870;-76
2023/07/29 09:20:52;;;;;;;;;0.00;0.00;;;;;;;;5053799;28;8859;-76
2023/07/29 09:23:20;;;;;;;;;0.40;0.40;;;;;;;;5052794;28;8875;-77
2023/07/29 09:25:48;;;;;;;;;1.00;1.00;;;;;;;;5053176;28;8871;-76
2023/07/29 09:28:16;;;;;;;;;0.60;0.60;;;;;;;;5052496;28;8831;-75
2023/07/29 09:30:46;;;;;;;;;0.80;0.80;;;;;;;;5052253;28;8784;-76
2023/07/29 09:33:13;;;;;;;;;0.80;0.80;;;;;;;;5052482;28;8859;-78
2023/07/29 09:35:40;;;;;;;;;0.20;0.20;;;;;;;;5052584;28;8873;-77
2023/07/29 09:38:08;;;;;;;;;1.00;1.00;;;;;;;;5052309;28;8851;-77
2023/07/29 09:40:40;;;;;;;;;0.00;0.00;;;;;;;;5052909;28;8981;-77
2023/07/29 09:43:09;;;;;;;;;0.60;0.60;;;;;;;;5052538;28;8873;-76
2023/07/29 09:45:37;;;;;;;;;0.00;0.00;;;;;;;;5053350;28;8855;-77
2023/07/29 09:48:09;;;;;;;;;0.00;0.00;;;;;;;;5053939;28;8913;-77
2023/07/29 09:50:36;;;;;;;;;0.00;0.00;;;;;;;;5055280;28;8886;-77
2023/07/29 09:53:04;;;;;;;;;0.00;0.00;;;;;;;;5054505;28;8851;-76
2023/07/29 09:55:33;;;;;;;;;0.00;0.00;;;;;;;;5055362;28;8868;-77
2023/07/29 09:58:04;;;;;;;;;0.40;0.40;;;;;;;;5053517;28;8986;-77
2023/07/29 10:00:32;;;;;;;;;0.40;0.40;;;;;;;;5052572;28;8828;-77
2023/07/29 10:03:00;;;;;;;;;0.00;0.00;;;;;;;;5052065;28;8893;-79
2023/07/29 10:05:28;;;;;;;;;0.40;0.40;;;;;;;;5052012;28;8851;-76
2023/07/29 10:07:56;;;;;;;;;0.00;0.00;;;;;;;;5051759;28;8864;-81
2023/07/29 10:10:23;;;;;;;;;0.20;0.20;;;;;;;;5052481;28;8838;-77
2023/07/29 10:12:51;;;;;;;;;0.00;0.00;;;;;;;;5051990;28;8851;-79
2023/07/29 10:15:20;;;;;;;;;0.80;0.80;;;;;;;;5051520;28;9693;-77
2023/07/29 10:17:47;;;;;;;;;0.20;0.20;;;;;;;;5051519;28;8884;-82
2023/07/29 10:20:15;;;;;;;;;0.80;0.80;;;;;;;;5050644;28;8874;-78
2023/07/29 10:22:43;;;;;;;;;0.00;0.00;;;;;;;;5051832;28;8973;-77
2023/07/29 10:25:14;;;;;;;;;0.00;0.00;;;;;;;;5051802;28;8843;-78
2023/07/29 10:27:45;;;;;;;;;0.00;0.00;;;;;;;;5051707;28;8855;-77
2023/07/29 10:30:13;;;;;;;;;0.00;0.00;;;;;;;;5050704;28;8857;-77
2023/07/29 10:32:44;;;;;;;;;0.80;0.80;;;;;;;;5051936;28;8875;-77
2023/07/29 10:35:12;;;;;;;;;0.80;0.80;;;;;;;;5051281;28;8835;-75
2023/07/29 10:37:40;;;;;;;;;0.00;0.00;;;;;;;;5052093;28;8851;-76
2023/07/29 10:40:09;;;;;;;;;0.00;0.00;;;;;;;;5051278;28;8839;-75
2023/07/29 10:42:36;;;;;;;;;0.00;0.00;;;;;;;;5051437;28;8864;-75
2023/07/29 10:45:20;;;;;;;;;0.00;0.00;;;;;;;;5050978;28;8886;-74
2023/07/29 10:47:49;;;;;;;;;0.00;0.00;;;;;;;;5051365;28;8892;-75
2023/07/29 10:50:20;;;;;;;;;0.60;0.60;;;;;;;;5052052;28;8859;-77
2023/07/29 10:52:51;;;;;;;;;0.00;0.00;;;;;;;;5052147;28;8863;-74
2023/07/29 10:55:27;;;;;;;;;0.00;0.00;;;;;;;;5052023;28;8858;-74
2023/07/29 10:58:05;;;;;;;;;0.00;0.00;;;;;;;;5051088;28;9673;-75
2023/07/29 11:00:32;;;;;;;;;0.20;0.20;;;;;;;;5050484;28;8798;-77
2023/07/29 11:03:03;;;;;;;;;0.20;0.20;;;;;;;;5051326;28;8882;-76
2023/07/29 11:05:44;;;;;;;;;0.20;0.20;;;;;;;;5050591;28;8851;-77
2023/07/29 11:08:27;;;;;;;;;0.00;0.00;;;;;;;;5050828;28;8847;-76
2023/07/29 11:11:05;;;;;;;;;0.00;0.00;;;;;;;;5050771;28;8851;-75
2023/07/29 11:13:33;;;;;;;;;0.80;0.80;;;;;;;;5051591;28;8870;-83
2023/07/29 11:16:01;;;;;;;;;0.00;0.00;;;;;;;;5050793;28;8855;-78
2023/07/29 11:18:32;;;;;;;;;0.00;0.00;;;;;;;;5051790;28;8854;-79
2023/07/29 11:21:00;;;;;;;;;0.60;0.60;;;;;;;;5052104;28;8859;-78
2023/07/29 11:23:32;;;;;;;;;0.00;0.00;;;;;;;;5053331;28;8859;-81
2023/07/29 11:26:00;;;;;;;;;0.80;0.80;;;;;;;;5053316;28;8875;-80
2023/07/29 11:28:27;;;;;;;;;0.20;0.20;;;;;;;;5053122;28;8888;-80
2023/07/29 11:30:55;;;;;;;;;2.40;0.20;;;;;;;;5051703;28;8906;-78
2023/07/29 11:33:24;;;;;;;;;0.20;0.20;;;;;;;;5051364;28;8851;-77
2023/07/29 11:35:53;;;;;;;;;0.00;0.00;;;;;;;;5051220;28;8851;-77
2023/07/29 11:38:23;;;;;;;;;0.00;0.00;;;;;;;;5050437;28;8924;-76
2023/07/29 11:40:57;;;;;;;;;0.00;0.00;;;;;;;;5050670;28;8835;-78
2023/07/29 11:43:24;;;;;;;;;0.00;0.00;;;;;;;;5050383;28;8863;-76
2023/07/29 11:45:53;;;;;;;;;0.00;0.00;;;;;;;;5050672;28;8843;-81
2023/07/29 11:48:27;;;;;;;;;0.00;0.00;;;;;;;;5050831;28;8863;-76
2023/07/29 11:50:56;;;;;;;;;0.00;0.00;;;;;;;;5050204;28;8886;-74
2023/07/29 11:53:23;;;;;;;;;0.00;0.00;;;;;;;;5050724;28;8869;-79
2023/07/29 11:55:52;;;;;;;;;0.00;0.00;;;;;;;;5050067;28;8859;-78
2023/07/29 11:58:20;;;;;;;;;0.00;0.00;;;;;;;;5050204;28;9616;-78
2023/07/29 12:00:48;;;;;;;;;0.00;0.00;;;;;;;;5049546;28;9688;-78
2023/07/29 12:03:17;;;;;;;;;0.00;0.00;;;;;;;;5049938;28;8867;-78
2023/07/29 12:05:44;;;;;;;;;0.00;0.00;;;;;;;;5050679;28;8906;-78
2023/07/29 12:08:13;;;;;;;;;0.00;0.00;;;;;;;;5050294;28;8863;-78
2023/07/29 12:10:41;;;;;;;;;0.80;0.00;;;;;;;;5050284;28;8974;-77
2023/07/29 12:13:09;;;;;;;;;2.00;0.00;;;;;;;;5049532;28;8839;-79
2023/07/29 12:15:40;;;;;;;;;0.00;0.00;;;;;;;;5049314;28;8867;-78
2023/07/29 12:18:07;;;;;;;;;0.00;0.00;;;;;;;;5049188;28;8944;-77
2023/07/29 12:20:37;;;;;;;;;1.00;0.00;;;;;;;;5049321;28;8894;-79
2023/07/29 12:23:05;;;;;;;;;0.00;0.00;;;;;;;;5049161;28;8847;-78
2023/07/29 12:25:34;;;;;;;;;0.60;0.00;;;;;;;;5049345;28;8862;-78
2023/07/29 12:28:06;;;;;;;;;0.00;0.00;;;;;;;;5049748;28;8962;-78
2023/07/29 12:30:33;;;;;;;;;0.00;0.00;;;;;;;;5049509;28;8822;-79
2023/07/29 12:33:00;;;;;;;;;0.00;0.00;;;;;;;;5049421;28;8975;-78
2023/07/29 12:35:36;;;;;;;;;0.00;0.00;;;;;;;;5049479;28;8847;-78
2023/07/29 12:38:03;;;;;;;;;0.00;0.00;;;;;;;;5049369;28;8975;-80
2023/07/29 12:40:31;;;;;;;;;0.00;0.00;;;;;;;;5050012;28;8966;-80
2023/07/29 12:42:59;;;;;;;;;0.00;0.00;;;;;;;;5049110;28;8957;-78
2023/07/29 12:45:28;;;;;;;;;0.00;0.00;;;;;;;;5048992;28;8883;-79
2023/07/29 12:47:56;;;;;;;;;0.00;0.00;;;;;;;;5049023;28;8890;-78
2023/07/29 12:50:23;;;;;;;;;0.00;0.00;;;;;;;;5049761;28;8854;-79
2023/07/29 12:52:51;;;;;;;;;1.00;0.00;;;;;;;;5049786;28;8969;-79
2023/07/29 12:55:18;;;;;;;;;0.00;0.00;;;;;;;;5049443;28;8886;-79
2023/07/29 12:57:45;;;;;;;;;0.40;0.40;;;;;;;;5049792;28;8855;-79
2023/07/29 13:00:14;;;;;;;;;0.20;0.20;;;;;;;;5049782;28;8877;-79
2023/07/29 13:02:42;;;;;;;;;0.00;0.00;;;;;;;;5050960;28;9730;-79
2023/07/29 13:05:11;;;;;;;;;0.40;0.00;;;;;;;;5050680;28;8859;-79
2023/07/29 13:07:39;;;;;;;;;3.60;2.60;;;;;;;;5049969;28;9019;-78
2023/07/29 13:10:07;;;;;;;;;0.20;0.20;;;;;;;;5049359;28;8867;-79
2023/07/29 13:12:34;;;;;;;;;0.00;0.00;;;;;;;;5049812;28;8869;-79
2023/07/29 13:15:02;;;;;;;;;0.40;0.40;;;;;;;;5048550;28;8851;-77
2023/07/29 13:17:33;;;;;;;;;0.00;0.00;;;;;;;;5049618;28;8885;-78
2023/07/29 13:20:00;;;;;;;;;0.40;0.40;;;;;;;;5048924;28;9006;-77
2023/07/29 13:22:28;;;;;;;;;0.00;0.00;;;;;;;;5050428;28;8881;-83
2023/07/29 13:24:55;;;;;;;;;0.00;0.00;;;;;;;;5051172;28;8847;-77
2023/07/29 13:27:22;;;;;;;;;0.00;0.00;;;;;;;;5049645;28;8855;-78
2023/07/29 13:29:49;;;;;;;;;1.00;1.00;;;;;;;;5048598;28;8916;-79
2023/07/29 13:32:17;;;;;;;;;0.00;0.00;;;;;;;;5048384;28;8929;-76
2023/07/29 13:34:45;;;;;;;;;0.40;0.40;;;;;;;;5048525;28;8887;-78
2023/07/29 13:37:12;;;;;;;;;0.00;0.00;;;;;;;;5048269;28;8867;-78
2023/07/29 13:39:40;;;;;;;;;0.00;0.00;;;;;;;;5048786;28;8855;-77
2023/07/29 13:42:07;;;;;;;;;0.00;0.00;;;;;;;;5048827;28;8847;-76
2023/07/29 13:44:34;;;;;;;;;0.00;0.00;;;;;;;;5049367;28;8863;-78
2023/07/29 13:47:02;;;;;;;;;0.60;0.00;;;;;;;;5048921;28;8871;-78
2023/07/29 13:49:29;;;;;;;;;0.00;0.00;;;;;;;;5049014;28;8862;-79
2023/07/29 13:51:58;;;;;;;;;1.00;1.00;;;;;;;;5048569;28;8854;-79
2023/07/29 13:54:25;;;;;;;;;0.00;0.00;;;;;;;;5049280;28;8851;-78
2023/07/29 13:56:54;;;;;;;;;0.00;0.00;;;;;;;;5052907;28;8847;-80
2023/07/29 13:59:21;;;;;;;;;0.40;0.00;;;;;;;;5052451;28;8847;-75
2023/07/29 14:01:48;;;;;;;;;0.80;0.80;;;;;;;;5051576;28;8800;-73
2023/07/29 14:04:15;;;;;;;;;0.00;0.00;;;;;;;;5052174;28;8851;-74
2023/07/29 14:06:43;;;;;;;;;1.00;1.00;;;;;;;;5052261;28;8854;-75
2023/07/29 14:09:14;;;;;;;;;4.20;1.80;;;;;;;;5051707;28;8855;-75
2023/07/29 14:11:41;;;;;;;;;2.00;1.80;;;;;;;;5052034;28;9570;-74
2023/07/29 14:14:09;;;;;;;;;0.20;0.20;;;;;;;;5051780;28;8978;-75
2023/07/29 14:16:37;;;;;;;;;0.80;0.80;;;;;;;;5051385;28;9679;-77
2023/07/29 14:19:07;;;;;;;;;3.20;0.00;;;;;;;;5051886;28;8854;-78
2023/07/29 14:21:34;;;;;;;;;1.80;0.00;;;;;;;;5051700;28;8873;-78
2023/07/29 14:24:01;;;;;;;;;0.80;0.80;;;;;;;;5051641;28;8886;-77
2023/07/29 14:26:30;;;;;;;;;0.00;0.00;;;;;;;;5052361;28;8878;-77
2023/07/29 14:28:57;;;;;;;;;0.00;0.00;;;;;;;;5052061;28;8843;-76
2023/07/29 14:31:25;;;;;;;;;0.80;0.00;;;;;;;;5051725;28;8795;-78
2023/07/29 14:33:52;;;;;;;;;0.00;0.00;;;;;;;;5053047;28;8863;-77
2023/07/29 14:36:19;;;;;;;;;0.00;0.00;;;;;;;;5054113;28;8851;-75
2023/07/29 14:38:46;;;;;;;;;0.00;0.00;;;;;;;;5053114;28;8965;-77
2023/07/29 14:41:14;;;;;;;;;0.00;0.00;;;;;;;;5052202;28;9643;-76
2023/07/29 14:43:43;;;;;;;;;1.00;0.20;;;;;;;;5051912;28;8869;-77
2023/07/29 14:46:10;;;;;;;;;0.00;0.00;;;;;;;;5051408;28;8846;-74
2023/07/29 14:48:37;;;;;;;;;0.00;0.00;;;;;;;;5051050;28;8863;-77
2023/07/29 14:51:04;;;;;;;;;0.20;0.20;;;;;;;;5050896;28;8855;-80
2023/07/29 14:53:32;;;;;;;;;0.00;0.00;;;;;;;;5050893;28;8863;-75
2023/07/29 14:55:59;;;;;;;;;0.60;0.60;;;;;;;;5050946;28;8867;-75
2023/07/29 14:58:26;;;;;;;;;0.00;0.00;;;;;;;;5051172;28;8886;-73
2023/07/29 15:00:55;;;;;;;;;0.40;0.40;;;;;;;;5051262;28;8772;-74
2023/07/29 15:03:22;;;;;;;;;0.00;0.00;;;;;;;;5051999;28;8984;-75